Flight Track Log - Related Links

Times and Time Zones

All times are in EDT time to prevent confusion due to time zone crossing. See the N400PU flight status page for this flight to view local times or setup timezone preferences in your user account.


Time Position Orientation Groundspeed Altitude Reporting Facility
EDT Latitude Longitude Course Direction KTS MPH feet Rate Location/Type
Wed 11:17:07 AM 40.7300 -84.3797 282° West 188 216 8,000  Level Chicago Center
Wed 11:18:00 AM 40.5444 -87.7382 279° West  Level FlightAware Approximate
Wed 11:18:07 AM 40.7519 -84.4461 294° West 189 217 8,000  Level Chicago Center
Wed 11:19:00 AM 40.5662 -87.8535 287° West  Level FlightAware Approximate
Wed 11:19:08 AM 40.7714 -84.5153 290° West 188 216 8,000  Level Chicago Center
Wed 11:20:00 AM 40.5925 -87.9674 287° West  Level FlightAware Approximate
Wed 11:20:08 AM 40.7892 -84.5736 292° West 185 213 7,900  Level Chicago Center
Wed 11:21:00 AM 40.6077 -88.0821 303° West  Level FlightAware Approximate
Wed 11:21:03 AM 40.7942 -84.6367 276° West 194 223 7,200  Level Chicago Center
Wed 11:22:00 AM 40.6326 -88.1954 282° West  Level FlightAware Approximate
Wed 11:22:04 AM 40.7989 -84.7164 274° West 205 236 6,300  Level Chicago Center
Wed 11:24:00 AM 40.8203 -84.9457 277° West  Level Estimated
Wed 11:31:00 AM 40.8938 -85.7772 277° West  Level Estimated
Wed 11:32:00 AM 40.9038 -85.8961 276° West  Level Estimated
Wed 11:33:00 AM 40.9137 -86.0151 276° West  Level Estimated
Wed 11:34:00 AM 40.9235 -86.1341 276° West  Level Estimated
Wed 11:35:00 AM 40.9331 -86.2532 276° West  Level Estimated
Wed 11:36:00 AM 40.9426 -86.3723 276° West  Level Estimated
Wed 11:37:00 AM 40.9520 -86.4914 276° West  Level Estimated
Wed 11:38:00 AM 40.9613 -86.6105 276° West  Level Estimated
Wed 11:39:00 AM 40.9705 -86.7297 276° West  Level Estimated
Wed 11:40:00 AM 40.9795 -86.8489 276° West  Level Estimated
Wed 11:40:27 AM 40.4075 -86.9114 275° West 173 199 1,500  Level Chicago Center
Wed 11:41:00 AM 40.9884 -86.9681 276° West  Level Estimated
Wed 11:41:33 AM 40.4497 -86.9058 North 196 226 3,800  Level Chicago Center
Wed 11:42:00 AM 40.9972 -87.0874 276° West  Level Estimated
Wed 11:42:32 AM 40.4672 -86.9689 290° West 224 258 5,400  Level Chicago Center
Wed 11:43:00 AM 41.0059 -87.2067 276° West  Level Estimated
Wed 11:43:34 AM 40.4811 -87.0650 281° West 250 288 7,300  Level Chicago Center
Wed 11:44:00 AM 41.0144 -87.3260 275° West  Level Estimated
Wed 11:44:36 AM 40.4975 -87.1619 283° West 269 310 9,600  Level Chicago Center
Wed 11:45:00 AM 41.0228 -87.4454 275° West  Level Estimated
Wed 11:45:38 AM 40.5197 -87.2825 284° West 282 325 12,400  Level Chicago Center
Wed 11:46:39 AM 40.5369 -87.3825 283° West 281 323 15,100 2,439 Climbing Chicago Center
Wed 11:47:41 AM 40.5542 -87.4800 283° West 277 319 17,400 1,597 Climbing Chicago Center
Wed 11:48:43 AM 40.5703 -87.5736 283° West 266 306 18,400 1,113 Climbing Chicago Center
Wed 11:49:45 AM 40.5878 -87.6739 283° West 279 321 19,700 1,403 Climbing Chicago Center
Wed 11:50:47 AM 40.6050 -87.7817 282° West 297 342 21,300 1,742 Climbing Chicago Center
Wed 11:51:49 AM 40.6281 -87.9153 283° West 312 359 23,300 1,742 Climbing Chicago Center
Wed 11:52:51 AM 40.6467 -88.0292 282° West 318 366 24,900 1,500 Climbing Chicago Center
Wed 11:53:53 AM 40.6664 -88.1433 283° West 322 371 26,400 1,597 Climbing Chicago Center
Wed 11:54:55 AM 40.6856 -88.2592 282° West 324 373 28,200 1,403 Climbing Chicago Center
Wed 11:55:57 AM 40.7047 -88.3736 282° West 321 369 29,300 1,056 Climbing Chicago Center
Wed 11:57:00 AM 40.7281 -88.5197 282° West 339 390 30,400 1,152 Climbing Chicago Center
Wed 11:58:02 AM 40.7492 -88.6461 282° West 350 403 31,700 1,355 Climbing Chicago Center
Wed 11:59:04 AM 40.7697 -88.7692 282° West 345 397 33,200 1,645 Climbing Chicago Center
Wed 12:00:06 PM 40.7892 -88.8933 282° West 325 374 35,100 1,597 Climbing Chicago Center
Wed 12:01:08 PM 40.8061 -89.0008 282° West 305 351 36,500 1,161 Climbing Chicago Center
Wed 12:02:10 PM 40.8222 -89.1039 282° West 293 337 37,500 726 Climbing Chicago Center
Wed 12:03:12 PM 40.8367 -89.2067 281° West 287 330 38,000 242 Climbing Chicago Center
Wed 12:04:14 PM 40.8511 -89.3150 280° West 300 345 38,000  Level Chicago Center
Wed 12:05:16 PM 40.8678 -89.4283 281° West 315 362 38,000  Level Chicago Center
Wed 12:06:18 PM 40.8856 -89.5600 280° West 328 377 38,000  Level Chicago Center
Wed 12:07:20 PM 40.9042 -89.6803 282° West 333 383 38,000  Level Chicago Center
Wed 12:08:21 PM 40.9175 -89.7789 280° West 340 391 38,000  Level Chicago Center
Wed 12:09:24 PM 40.9375 -89.9456 279° West 331 381 38,000  Level Chicago Center
Wed 12:10:26 PM 40.9533 -90.0650 280° West 329 379 38,000  Level Chicago Center
Wed 12:11:28 PM 40.9686 -90.1861 280° West 332 382 38,000  Level Chicago Center
Wed 12:12:30 PM 40.9881 -90.3144 281° West 336 387 38,000  Level Chicago Center
Wed 12:13:32 PM 41.0036 -90.4356 280° West 335 386 38,000  Level Chicago Center
Wed 12:14:34 PM 41.0186 -90.5583 279° West 338 389 38,000  Level Chicago Center
Wed 12:15:36 PM 41.0344 -90.6800 280° West 337 388 38,000  Level Chicago Center
Wed 12:16:38 PM 41.0533 -90.8272 280° West 338 389 38,000  Level Chicago Center
Wed 12:17:40 PM 41.0694 -90.9517 280° West 341 392 38,000  Level Chicago Center
Wed 12:18:42 PM 41.0839 -91.0758 279° West 341 392 38,000  Level Chicago Center
Wed 12:19:44 PM 41.0992 -91.2006 279° West 343 395 38,000  Level Chicago Center
Wed 12:20:46 PM 41.1150 -91.3264 280° West 346 398 38,000  Level Chicago Center
Wed 12:21:48 PM 41.1294 -91.4511 279° West 343 395 38,000  Level Chicago Center
Wed 12:22:50 PM 41.1456 -91.5778 280° West 348 400 38,000  Level Chicago Center
Wed 12:23:52 PM 41.1611 -91.7181 278° West 349 402 38,000  Level Chicago Center
Wed 12:24:54 PM 41.1764 -91.8433 279° West 348 400 38,000  Level Chicago Center
Wed 12:25:56 PM 41.1936 -91.9942 279° West 349 402 38,000  Level Chicago Center
Wed 12:26:58 PM 41.2083 -92.1189 279° West 347 399 38,000  Level Chicago Center
Wed 12:28:00 PM 41.2231 -92.2442 279° West 347 399 38,000  Level Chicago Center
Wed 12:29:03 PM 41.2378 -92.3803 278° West 348 400 38,000  Level Chicago Center
Wed 12:30:05 PM 41.2503 -92.4944 278° West 347 399 38,000  Level Chicago Center
Wed 12:31:07 PM 41.2675 -92.6442 279° West 346 398 38,000  Level Chicago Center
Wed 12:32:09 PM 41.2808 -92.7697 278° West 346 398 38,000  Level Chicago Center
Wed 12:33:08 PM 41.2942 -92.8967 278° West 346 398 38,000 -248 Level Minneapolis Center
Wed 12:34:10 PM 41.3089 -93.0219 279° West 347 399 37,500 -1,161 Descending Minneapolis Center
Wed 12:35:12 PM 41.3206 -93.1478 277° West 347 399 35,600 -1,694 Descending Minneapolis Center
Wed 12:36:14 PM 41.3342 -93.2731 278° West 346 398 34,000 -774 Descending Minneapolis Center
Wed 12:37:16 PM 41.3492 -93.4267 277° West 350 403 34,000  Level Minneapolis Center
Wed 12:38:18 PM 41.3642 -93.5564 279° West 356 410 34,000  Level Minneapolis Center
Wed 12:39:20 PM 41.3789 -93.6875 279° West 361 415 34,000  Level Minneapolis Center
Wed 12:40:22 PM 41.3922 -93.8194 278° West 363 418 34,000  Level Minneapolis Center
Wed 12:41:24 PM 41.4067 -93.9769 277° West 362 417 34,000 -1,056 Level Minneapolis Center
Wed 12:42:27 PM 41.4200 -94.1078 278° West 360 414 31,800 -2,448 Descending Minneapolis Center
Wed 12:43:29 PM 41.4317 -94.2536 276° West 366 421 28,900 -2,468 Descending Minneapolis Center
Wed 12:44:31 PM 41.4442 -94.3944 277° West 379 436 26,700 -2,081 Descending Minneapolis Center
Wed 12:45:33 PM 41.4583 -94.5372 278° West 386 444 24,600 -2,032 Descending Minneapolis Center
Wed 12:46:35 PM 41.4722 -94.6847 277° West 398 458 22,500 -2,176 Descending Minneapolis Center
Wed 12:47:15 PM 41.4967 -94.8047 285° West 407 468 20,900 -2,032 Descending Minneapolis Center
Wed 12:47:37 PM 41.4856 -94.8292 239° Southwest 393 452 20,400 -2,149 Descending Minneapolis Center
Wed 12:48:22 PM 41.5078 -94.9564 283° West 380 437 18,500 -2,226 Descending Minneapolis Center
Wed 12:48:39 PM 41.4978 -94.9675 220° Southwest 377 434 18,100 -2,700 Descending Minneapolis Center
Wed 12:49:22 PM 41.5183 -95.1000 282° West 358 412 15,800 -2,903 Descending Minneapolis Center
Wed 12:49:41 PM 41.5125 -95.1258 253° West 360 414 15,100 -2,384 Descending Minneapolis Center
Wed 12:50:35 PM 41.5100 -95.2431 268° West 334 384 12,900 -2,661 Descending Minneapolis Center
Wed 12:51:36 PM 41.4586 -95.3469 237° Southwest 305 351 10,000 -2,296 Descending Minneapolis Center
Wed 12:52:30 PM 41.4261 -95.4206 240° Southwest 265 305 8,500 -1,606 Descending Minneapolis Center
Wed 12:52:47 PM 41.4119 -95.4297 206° Southwest 297 342 8,100 -2,262 Descending Minneapolis Center
Wed 12:53:31 PM 41.3875 -95.4975 244° Southwest 251 289 6,200 -2,323 Descending Minneapolis Center
Wed 12:53:49 PM 41.3742 -95.5094 214° Southwest 272 313 5,700 -1,433 Descending Minneapolis Center
Wed 12:54:38 PM 41.3394 -95.5894 240° Southwest 261 300 4,600 -931 Descending Minneapolis Center
Wed 12:55:45 PM 41.2983 -95.6611 233° Southwest 223 257 3,900 -614 Descending Minneapolis Center
Wed 12:56:45 PM 41.2756 -95.7250 245° Southwest 163 188 3,300 -716 Descending Minneapolis Center
Wed 12:57:34 PM 41.2600 -95.7739 247° West 182 209 2,600 -740 Descending Minneapolis Center
Wed 12:57:58 PM 41.2522 -95.7919 240° Southwest 186 214 2,400 -400 Descending Minneapolis Center
Wed 12:58:34 PM 41.2533 -95.8300 272° West 153 176 2,200 -484 Descending Minneapolis Center
Wed 12:59:00 PM 41.2564 -95.8431 287° West 162 186 1,900 -689 Descending Minneapolis Center
Wed 12:59:35 PM 41.2744 -95.8664 316° Northwest 121 139 1,500 -677 Descending Minneapolis Center
Wed 01:00:02 PM 41.2833 -95.8714 337° Northwest 137 158 1,200 -667 Descending Minneapolis Center
Wed 01:02:00 PM 41.3000 -95.8833 246° West  Level FlightAware Approximate

Login

Don't have an account? Register now (free) for customized features, flight alerts, and more!